Time;durP1;ratioP1;P1;durP2;ratioP2;P2;SDS_P1;SDS_P2;PMS_P1;PMS_P2;Temp;Humidity;BMP_temperature;BMP_pressure;BME280_temperature;BME280_humidity;BME280_pressure;Samples;Min_cycle;Max_cycle;Signal;HPM_P1;HPM_P2
2024/04/24 00:04:39;;;;;;;20.90;12.50;;;;;;;3.28;65.10;99378.04;217273;1257;140570;-67
2024/04/24 00:09:40;;;;;;;19.60;13.90;;;;;;;3.25;65.06;99371.02;218874;1257;140912;-68
2024/04/24 00:14:42;;;;;;;21.90;14.50;;;;;;;3.25;65.29;99364.45;217227;1257;140292;-68
2024/04/24 00:19:44;;;;;;;20.00;12.50;;;;;;;3.23;65.44;99356.05;217420;1257;141189;-69
2024/04/24 00:24:47;;;;;;;17.80;12.30;;;;;;;3.23;65.55;99350.78;217502;1258;140038;-68
2024/04/24 00:29:48;;;;;;;19.80;14.40;;;;;;;3.21;65.55;99335.29;217875;1256;139990;-68
2024/04/24 00:34:50;;;;;;;19.10;13.70;;;;;;;3.16;65.65;99331.98;217043;1259;140314;-68
2024/04/24 00:39:52;;;;;;;18.90;14.90;;;;;;;3.13;65.92;99334.19;217168;1259;141027;-68
2024/04/24 00:44:54;;;;;;;17.80;12.90;;;;;;;3.10;66.14;99335.11;217045;1257;140415;-67
2024/04/24 00:49:58;;;;;;;21.30;14.90;;;;;;;3.10;66.21;99320.16;218160;1258;140561;-68
2024/04/24 00:54:59;;;;;;;16.20;11.30;;;;;;;3.11;66.46;99312.55;216947;1259;140293;-68
2024/04/24 01:00:02;;;;;;;20.00;13.00;;;;;;;3.10;66.66;99309.63;217267;1259;140790;-66
2024/04/24 01:05:04;;;;;;;20.10;12.70;;;;;;;3.06;66.73;99300.23;217073;1259;140045;-69
2024/04/24 01:10:16;;;;;;;22.60;13.40;;;;;;;3.04;66.93;99295.45;217235;1259;140266;-68
2024/04/24 01:15:18;;;;;;;20.80;14.90;;;;;;;3.05;66.90;99288.52;216986;1257;140832;-67
2024/04/24 01:20:25;;;;;;;16.10;12.10;;;;;;;3.06;67.22;99277.45;218179;1257;141859;-67
2024/04/24 01:25:40;;;;;;;22.60;15.40;;;;;;;3.03;67.23;99266.20;217725;1257;140082;-67
2024/04/24 01:30:45;;;;;;;19.00;13.60;;;;;;;3.00;67.29;99254.13;217630;1257;140388;-67
2024/04/24 01:35:47;;;;;;;17.80;12.00;;;;;;;2.99;67.44;99250.63;217370;1256;141506;-68
2024/04/24 01:40:50;;;;;;;21.90;12.70;;;;;;;2.99;67.67;99243.45;217404;1258;140170;-67
2024/04/24 01:45:51;;;;;;;20.20;14.20;;;;;;;2.98;67.78;99244.70;217305;1256;141215;-68
2024/04/24 01:50:53;;;;;;;17.70;13.30;;;;;;;2.96;67.59;99231.90;217314;1257;141012;-66
2024/04/24 01:55:55;;;;;;;18.70;13.60;;;;;;;2.93;68.01;99228.01;217098;1260;140770;-68
2024/04/24 02:00:57;;;;;;;19.90;13.60;;;;;;;2.92;68.00;99221.35;217238;1257;140612;-68
2024/04/24 02:05:59;;;;;;;21.00;12.80;;;;;;;2.89;68.10;99211.06;217216;1259;140278;-69
2024/04/24 02:11:01;;;;;;;21.90;15.30;;;;;;;2.88;68.36;99202.10;218281;1257;141227;-67
2024/04/24 02:16:03;;;;;;;22.90;12.70;;;;;;;2.87;68.45;99201.70;217156;1258;140073;-66
2024/04/24 02:21:09;;;;;;;17.20;13.50;;;;;;;2.86;68.58;99197.40;217275;1259;140584;-66
2024/04/24 02:26:11;;;;;;;22.80;14.30;;;;;;;2.85;68.55;99193.66;217840;1258;141230;-67
2024/04/24 02:31:13;;;;;;;19.10;13.50;;;;;;;2.85;68.80;99187.91;217064;1259;140005;-66
2024/04/24 02:36:16;;;;;;;21.80;14.30;;;;;;;2.84;68.86;99182.85;217001;1258;140148;-68
2024/04/24 02:41:17;;;;;;;23.00;15.80;;;;;;;2.86;69.04;99176.86;216984;1262;140239;-69
2024/04/24 02:46:30;;;;;;;19.70;13.60;;;;;;;2.84;69.01;99176.89;216859;1262;140635;-68
2024/04/24 02:51:32;;;;;;;21.50;14.70;;;;;;;2.82;69.26;99169.80;217112;1261;140790;-67
2024/04/24 02:56:34;;;;;;;19.80;13.70;;;;;;;2.81;69.36;99170.16;217079;1258;208386;-68
2024/04/24 03:01:36;;;;;;;20.30;14.50;;;;;;;2.80;69.47;99169.10;217318;1257;140830;-68
2024/04/24 03:06:44;;;;;;;21.40;13.70;;;;;;;2.78;69.57;99173.02;217383;1258;141282;-67
2024/04/24 03:11:58;;;;;;;21.40;16.10;;;;;;;2.79;69.82;99165.17;217168;1262;140912;-67
2024/04/24 03:17:01;;;;;;;22.70;15.70;;;;;;;2.79;69.73;99159.14;217086;1260;141163;-68
2024/04/24 03:22:03;;;;;;;20.90;12.50;;;;;;;2.80;69.88;99158.49;217194;1258;140320;-67
2024/04/24 03:27:05;;;;;;;19.20;14.30;;;;;;;2.79;69.89;99143.75;217111;1259;141209;-68
2024/04/24 03:32:06;;;;;;;20.60;14.90;;;;;;;2.76;70.22;99138.73;217839;1258;140601;-67
2024/04/24 03:37:08;;;;;;;24.60;14.50;;;;;;;2.76;70.35;99129.74;217613;1258;140200;-71
2024/04/24 03:42:10;;;;;;;20.20;15.80;;;;;;;2.77;70.36;99123.83;217153;1260;140187;-68
2024/04/24 03:47:13;;;;;;;25.30;17.60;;;;;;;2.79;70.48;99121.16;218027;1258;140377;-69
2024/04/24 03:52:14;;;;;;;25.80;15.30;;;;;;;2.81;70.55;99116.52;219705;1259;140279;-69
2024/04/24 03:57:16;;;;;;;26.30;16.30;;;;;;;2.85;70.77;99109.84;217774;1261;140422;-70
2024/04/24 04:02:18;;;;;;;23.90;14.20;;;;;;;2.87;70.80;99111.05;217212;1259;140589;-67
2024/04/24 04:07:19;;;;;;;21.20;14.60;;;;;;;2.89;70.95;99103.61;216939;1260;141251;-65
2024/04/24 04:12:21;;;;;;;20.30;13.30;;;;;;;2.90;71.15;99102.40;217248;1260;141281;-65
2024/04/24 04:17:23;;;;;;;23.40;14.70;;;;;;;2.91;70.99;99095.72;216857;1259;141557;-67
2024/04/24 04:22:25;;;;;;;22.80;15.10;;;;;;;2.93;71.16;99092.28;217006;1259;141361;-67
2024/04/24 04:27:29;;;;;;;20.10;13.90;;;;;;;2.96;71.21;99090.06;217154;1257;141456;-67
2024/04/24 04:32:30;;;;;;;22.70;14.10;;;;;;;3.00;71.52;99083.55;217616;1256;140676;-69
2024/04/24 04:37:32;;;;;;;19.70;13.70;;;;;;;3.06;71.49;99081.05;217335;1257;140635;-67
2024/04/24 04:42:33;;;;;;;19.70;14.30;;;;;;;3.12;71.71;99078.55;217806;1259;140976;-68
2024/04/24 04:47:35;;;;;;;19.80;13.20;;;;;;;3.17;71.72;99071.91;217260;1261;140661;-68
2024/04/24 04:52:36;;;;;;;24.10;14.10;;;;;;;3.21;71.90;99074.14;217405;1261;141991;-66
2024/04/24 04:57:37;;;;;;;20.80;13.90;;;;;;;3.27;71.90;99064.34;217259;1257;140065;-67
2024/04/24 05:02:39;;;;;;;21.60;14.80;;;;;;;3.35;71.85;99063.64;217325;1261;140433;-68
2024/04/24 05:07:41;;;;;;;21.00;15.00;;;;;;;3.44;71.69;99061.06;217917;1260;141841;-66
2024/04/24 05:12:44;;;;;;;23.80;13.20;;;;;;;3.49;71.63;99062.48;217706;1258;140240;-68
2024/04/24 05:17:46;;;;;;;21.20;13.10;;;;;;;3.56;71.72;99054.52;217264;1257;142085;-67
2024/04/24 05:22:51;;;;;;;21.30;14.00;;;;;;;3.61;71.87;99049.00;217711;1257;140650;-69
2024/04/24 05:33:14;;;;;;;23.40;13.80;;;;;;;3.79;71.63;99037.34;217109;1257;139930;-67
2024/04/24 05:38:15;;;;;;;19.70;12.10;;;;;;;3.93;71.63;99028.22;217360;1261;140828;-67
2024/04/24 05:43:17;;;;;;;19.90;13.70;;;;;;;4.03;71.53;99020.45;219935;1258;140405;-70
2024/04/24 05:48:19;;;;;;;18.10;12.20;;;;;;;4.12;71.35;99018.23;219751;1257;140906;-70
2024/04/24 05:53:21;;;;;;;29.10;15.20;;;;;;;4.20;71.41;99016.48;217138;1259;140313;-69
2024/04/24 05:58:23;;;;;;;22.10;13.50;;;;;;;4.27;71.08;99012.06;217230;1262;142032;-68
2024/04/24 06:03:24;;;;;;;17.90;11.70;;;;;;;4.33;71.18;99010.27;218250;1259;140279;-68
2024/04/24 06:08:26;;;;;;;21.30;12.90;;;;;;;4.40;71.22;99015.40;217494;1259;140108;-68
2024/04/24 06:13:28;;;;;;;19.70;14.90;;;;;;;4.48;71.45;99006.38;218157;1257;140655;-69
2024/04/24 06:18:30;;;;;;;19.30;12.30;;;;;;;4.57;71.28;98998.45;217870;1256;139716;-68
2024/04/24 06:23:32;;;;;;;26.00;13.50;;;;;;;4.64;71.28;98992.29;217333;1261;139923;-68
2024/04/24 06:28:34;;;;;;;18.10;13.00;;;;;;;4.73;71.14;98993.27;217411;1258;140208;-69
2024/04/24 06:33:37;;;;;;;20.60;13.90;;;;;;;4.81;71.02;98989.33;217208;1257;142463;-68
2024/04/24 06:38:39;;;;;;;19.00;12.20;;;;;;;4.93;71.20;98983.98;217375;1259;140189;-66
2024/04/24 06:43:41;;;;;;;20.60;12.20;;;;;;;5.09;71.52;98980.83;217440;1259;140731;-69
2024/04/24 06:48:43;;;;;;;22.00;12.60;;;;;;;5.25;71.07;98975.39;217519;1260;140217;-68
2024/04/24 06:53:45;;;;;;;22.10;14.90;;;;;;;5.36;71.05;98962.30;217169;1260;140183;-69
2024/04/24 06:58:46;;;;;;;16.50;11.60;;;;;;;5.48;70.87;98954.20;217237;1257;142325;-67
2024/04/24 07:03:47;;;;;;;19.90;12.90;;;;;;;5.63;71.09;98948.29;217431;1258;140214;-68
2024/04/24 07:08:49;;;;;;;18.80;12.20;;;;;;;5.78;71.04;98939.97;217366;1260;141604;-68
2024/04/24 07:13:51;;;;;;;19.00;13.10;;;;;;;5.90;70.48;98941.14;217689;1259;141132;-67
2024/04/24 07:18:53;;;;;;;21.90;15.50;;;;;;;5.98;70.39;98938.03;217352;1258;141010;-68
2024/04/24 07:23:54;;;;;;;20.70;13.80;;;;;;;6.08;69.92;98934.56;217376;1260;141040;-68
2024/04/24 07:28:56;;;;;;;18.20;11.60;;;;;;;6.18;70.40;98937.29;220141;1259;140416;-68
2024/04/24 07:33:57;;;;;;;19.60;12.00;;;;;;;6.37;70.41;98937.88;220288;1257;140733;-68
2024/04/24 07:38:59;;;;;;;18.60;12.30;;;;;;;6.54;70.22;98934.11;217556;1256;140121;-68
2024/04/24 07:44:00;;;;;;;16.30;13.30;;;;;;;6.68;69.79;98928.90;217598;1258;141227;-68
2024/04/24 07:49:03;;;;;;;17.50;11.90;;;;;;;6.80;69.37;98921.05;218605;1257;140387;-68
2024/04/24 07:54:05;;;;;;;16.90;12.40;;;;;;;6.99;69.52;98917.05;217825;1260;153096;-68
2024/04/24 07:59:07;;;;;;;13.80;10.90;;;;;;;7.23;68.78;98913.27;217061;1260;141521;-68
2024/04/24 08:04:12;;;;;;;15.70;11.90;;;;;;;7.48;68.67;98911.93;217967;1261;140648;-69
2024/04/24 08:09:14;;;;;;;22.30;11.50;;;;;;;7.66;68.10;98911.76;218480;1260;140437;-68
2024/04/24 08:14:17;;;;;;;16.50;12.30;;;;;;;7.81;68.53;98903.56;218401;1257;141268;-70
2024/04/24 08:19:18;;;;;;;15.10;12.40;;;;;;;7.89;67.99;98897.73;217182;1262;140501;-67
2024/04/24 08:24:20;;;;;;;11.70;10.60;;;;;;;7.92;67.72;98890.93;218099;1257;141868;-68
2024/04/24 08:29:22;;;;;;;18.90;13.20;;;;;;;7.93;67.21;98892.17;217722;1261;139871;-69
2024/04/24 08:34:24;;;;;;;17.10;11.20;;;;;;;7.91;66.82;98887.31;217361;1261;140082;-68
2024/04/24 08:39:26;;;;;;;17.40;12.40;;;;;;;7.90;66.77;98883.01;217323;1260;140864;-67
2024/04/24 08:44:29;;;;;;;17.30;11.20;;;;;;;7.98;66.94;98877.13;217385;1260;141022;-69
2024/04/24 08:49:37;;;;;;;15.90;12.10;;;;;;;8.09;66.97;98875.83;217888;1260;140063;-68
2024/04/24 08:54:39;;;;;;;20.40;11.00;;;;;;;8.20;66.74;98873.00;217591;1257;140772;-67
2024/04/24 08:59:44;;;;;;;14.40;10.40;;;;;;;8.29;66.00;98868.20;217288;1258;141689;-68
2024/04/24 09:04:47;;;;;;;13.60;11.30;;;;;;;8.40;65.87;98860.83;217531;1257;140024;-70
2024/04/24 09:09:50;;;;;;;16.80;9.90;;;;;;;8.49;65.53;98860.42;218599;1259;142208;-67
2024/04/24 09:14:52;;;;;;;16.40;11.30;;;;;;;8.54;65.15;98852.42;217156;1257;139993;-68
2024/04/24 09:19:53;;;;;;;15.10;12.70;;;;;;;8.64;65.39;98848.41;218334;1262;139862;-69
2024/04/24 09:24:56;;;;;;;15.10;11.00;;;;;;;8.80;65.20;98846.02;217376;1263;140525;-69
2024/04/24 09:29:59;;;;;;;13.80;10.70;;;;;;;8.92;64.84;98845.63;219415;1260;140236;-69
2024/04/24 09:35:01;;;;;;;15.00;9.50;;;;;;;8.99;64.61;98844.30;218309;1257;162199;-69
2024/04/24 09:40:04;;;;;;;10.00;8.70;;;;;;;9.07;64.48;98836.48;217337;1260;140077;-69
2024/04/24 09:45:09;;;;;;;11.20;10.00;;;;;;;9.18;64.26;98831.71;217676;1257;141175;-68
2024/04/24 09:50:13;;;;;;;21.70;10.90;;;;;;;9.31;64.27;98827.62;217225;1263;141083;-67
2024/04/24 09:55:14;;;;;;;14.30;10.60;;;;;;;9.56;64.37;98825.38;217270;1263;141780;-69
2024/04/24 10:00:16;;;;;;;16.50;10.60;;;;;;;9.81;63.99;98818.67;217204;1263;140687;-69
2024/04/24 10:05:23;;;;;;;18.00;11.70;;;;;;;9.92;63.32;98817.77;217389;1260;141620;-67
2024/04/24 10:10:35;;;;;;;14.60;9.50;;;;;;;9.95;63.04;98813.42;217563;1260;140627;-67
2024/04/24 10:15:43;;;;;;;21.10;10.50;;;;;;;10.08;63.36;98799.90;217493;1258;140694;-67
2024/04/24 10:20:46;;;;;;;12.90;9.20;;;;;;;10.24;62.99;98803.09;217294;1258;141503;-68
2024/04/24 10:25:48;;;;;;;14.60;10.80;;;;;;;10.33;62.59;98799.65;218292;1257;140657;-66
2024/04/24 10:30:52;;;;;;;11.40;9.40;;;;;;;10.45;62.55;98797.91;217178;1257;141214;-67
2024/04/24 10:35:55;;;;;;;11.80;9.30;;;;;;;10.64;62.30;98795.80;217064;1261;142447;-70
2024/04/24 10:40:57;;;;;;;12.90;9.40;;;;;;;10.75;61.93;98794.57;217196;1257;140279;-67
2024/04/24 10:46:02;;;;;;;12.20;8.90;;;;;;;10.86;61.71;98794.27;217200;1258;140913;-66
2024/04/24 10:51:04;;;;;;;10.60;7.20;;;;;;;10.94;61.48;98792.92;217305;1260;140300;-68
2024/04/24 10:56:05;;;;;;;9.30;8.20;;;;;;;11.05;61.27;98788.05;217404;1260;141272;-68
2024/04/24 11:01:07;;;;;;;11.90;8.80;;;;;;;11.00;60.35;98779.30;217228;1261;139864;-68
2024/04/24 11:06:10;;;;;;;10.20;7.70;;;;;;;11.02;60.00;98768.14;217125;1257;141037;-69
2024/04/24 11:11:12;;;;;;;14.50;7.80;;;;;;;11.10;60.13;98765.92;218412;1260;139458;-66
2024/04/24 11:16:13;;;;;;;10.00;8.20;;;;;;;11.20;59.66;98766.23;218031;1260;140680;-69
2024/04/24 11:21:23;;;;;;;9.70;7.00;;;;;;;11.28;59.11;98765.80;217307;1260;140995;-70
2024/04/24 11:26:32;;;;;;;12.00;8.00;;;;;;;11.42;59.16;98763.14;217298;1260;140537;-68
2024/04/24 11:31:42;;;;;;;10.80;8.70;;;;;;;11.51;58.78;98763.86;217291;1258;139791;-69
2024/04/24 11:36:45;;;;;;;10.90;9.60;;;;;;;11.52;58.62;98761.63;216759;1261;743961;-70
2024/04/24 11:41:49;;;;;;;9.30;7.20;;;;;;;11.40;57.74;98761.59;217605;1260;139591;-71
2024/04/24 11:46:50;;;;;;;8.90;7.40;;;;;;;11.32;57.92;98764.35;217277;1260;139465;-69
2024/04/24 11:51:53;;;;;;;10.40;8.20;;;;;;;11.25;57.58;98762.16;217207;1257;139532;-69
2024/04/24 11:56:59;;;;;;;9.00;8.10;;;;;;;11.16;57.16;98758.49;217272;1257;140262;-69
2024/04/24 12:02:01;;;;;;;11.60;8.20;;;;;;;11.18;57.42;98749.01;217465;1260;139833;-69
2024/04/24 12:07:03;;;;;;;12.80;8.40;;;;;;;11.15;56.70;98745.80;217152;1260;139765;-73
2024/04/24 12:12:06;;;;;;;8.30;6.80;;;;;;;11.11;55.95;98740.17;217451;1257;141482;-68
2024/04/24 12:17:08;;;;;;;8.70;6.90;;;;;;;11.02;55.70;98736.46;218647;1256;139767;-69
2024/04/24 12:22:10;;;;;;;11.60;8.40;;;;;;;10.98;55.70;98735.17;217598;1257;140384;-68
2024/04/24 12:27:12;;;;;;;8.50;6.30;;;;;;;11.02;55.99;98724.46;217346;1258;139666;-71
2024/04/24 12:32:15;;;;;;;9.30;8.00;;;;;;;11.09;55.97;98721.02;217865;1256;139120;-68
2024/04/24 12:37:18;;;;;;;8.00;7.40;;;;;;;11.15;55.60;98722.96;217377;1257;140582;-71
2024/04/24 12:42:20;;;;;;;8.50;7.60;;;;;;;11.21;55.33;98725.91;217256;1257;142418;-68
2024/04/24 12:47:21;;;;;;;9.50;7.30;;;;;;;11.30;55.59;98726.30;217446;1257;139402;-70
2024/04/24 12:52:23;;;;;;;7.50;6.70;;;;;;;11.43;55.53;98724.08;217225;1260;139905;-67
2024/04/24 12:57:24;;;;;;;7.80;6.80;;;;;;;11.57;55.26;98719.89;217270;1259;140967;-70
2024/04/24 13:02:26;;;;;;;9.80;8.40;;;;;;;11.79;54.31;98713.09;217537;1259;139672;-69
2024/04/24 13:07:28;;;;;;;7.70;6.10;;;;;;;11.89;53.58;98704.66;218216;1256;140273;-69
2024/04/24 13:12:30;;;;;;;8.80;7.00;;;;;;;11.96;53.53;98707.52;218146;1257;140453;-69
2024/04/24 13:17:32;;;;;;;7.00;5.80;;;;;;;11.97;53.19;98701.58;217208;1260;140213;-68
2024/04/24 13:22:34;;;;;;;8.60;7.10;;;;;;;11.91;52.36;98694.66;219337;1257;139685;-70
2024/04/24 13:27:35;;;;;;;7.70;6.90;;;;;;;11.86;52.65;98681.80;218574;1259;139446;-68
2024/04/24 13:32:38;;;;;;;9.00;7.00;;;;;;;11.93;52.77;98681.68;218070;1257;139807;-70
2024/04/24 13:37:40;;;;;;;9.10;7.80;;;;;;;12.02;53.03;98678.56;218192;1256;139750;-70
2024/04/24 13:42:42;;;;;;;9.10;7.50;;;;;;;12.01;52.59;98679.05;217502;1257;139991;-68
2024/04/24 13:47:44;;;;;;;10.10;8.80;;;;;;;11.94;52.38;98677.77;218186;1257;140020;-69
2024/04/24 13:52:46;;;;;;;8.20;7.10;;;;;;;11.77;52.26;98673.02;217243;1257;140036;-69
2024/04/24 13:57:47;;;;;;;9.10;8.10;;;;;;;11.70;52.25;98669.70;218078;1258;139612;-69
2024/04/24 14:02:49;;;;;;;8.40;5.90;;;;;;;11.61;51.82;98662.98;217334;1258;140051;-69
2024/04/24 14:07:51;;;;;;;7.50;6.10;;;;;;;11.53;52.25;98657.54;217560;1259;139526;-69
2024/04/24 14:12:53;;;;;;;8.90;7.40;;;;;;;11.53;52.19;98658.19;217445;1260;141219;-69
2024/04/24 14:17:55;;;;;;;10.70;8.50;;;;;;;11.58;51.84;98652.89;217606;1257;139171;-69
2024/04/24 14:22:58;;;;;;;8.80;6.90;;;;;;;11.73;52.75;98650.27;217396;1258;140740;-70
2024/04/24 14:27:59;;;;;;;8.50;7.70;;;;;;;11.79;51.97;98649.55;217641;1257;140138;-69
2024/04/24 14:33:01;;;;;;;10.90;7.50;;;;;;;11.80;52.26;98650.61;217443;1256;141759;-69
2024/04/24 14:38:02;;;;;;;7.70;7.00;;;;;;;11.76;52.19;98646.17;217296;1257;141110;-69
2024/04/24 14:43:04;;;;;;;9.50;7.00;;;;;;;11.69;52.08;98644.77;217140;1257;140248;-70
2024/04/24 14:48:07;;;;;;;9.70;7.20;;;;;;;11.66;52.19;98644.13;217468;1257;140445;-68
2024/04/24 14:53:08;;;;;;;9.30;6.60;;;;;;;11.70;52.55;98641.02;218641;1257;139212;-69
2024/04/24 14:58:11;;;;;;;8.70;7.60;;;;;;;11.65;51.89;98636.65;217209;1260;140147;-69
2024/04/24 15:03:13;;;;;;;8.10;7.30;;;;;;;11.44;51.66;98629.56;217196;1257;140381;-68
2024/04/24 15:08:15;;;;;;;8.70;7.30;;;;;;;11.31;51.98;98628.02;217340;1257;141004;-69
2024/04/24 15:13:16;;;;;;;9.10;7.00;;;;;;;11.21;51.80;98624.13;218117;1257;141261;-69
2024/04/24 15:18:18;;;;;;;13.10;8.70;;;;;;;11.14;51.49;98621.70;217157;1257;139413;-68
2024/04/24 15:23:20;;;;;;;11.60;7.10;;;;;;;11.09;52.05;98615.66;217083;1257;140239;-68
2024/04/24 15:28:21;;;;;;;7.60;6.20;;;;;;;10.95;51.96;98610.38;217237;1257;139943;-68
2024/04/24 15:33:24;;;;;;;10.40;7.90;;;;;;;10.80;51.88;98610.88;217263;1260;234419;-73
2024/04/24 15:38:25;;;;;;;15.40;8.10;;;;;;;10.77;52.21;98613.80;217507;1257;140486;-68
2024/04/24 15:43:27;;;;;;;9.50;6.50;;;;;;;10.79;52.85;98609.48;217379;1257;140462;-69
2024/04/24 15:48:28;;;;;;;7.60;5.90;;;;;;;10.81;53.07;98606.34;217291;1260;140285;-71
2024/04/24 15:53:30;;;;;;;8.50;6.50;;;;;;;10.79;52.88;98600.95;217321;1257;141282;-70
2024/04/24 15:58:32;;;;;;;13.00;8.60;;;;;;;10.73;53.06;98599.82;217181;1260;140453;-70
2024/04/24 16:03:34;;;;;;;8.90;6.20;;;;;;;10.72;53.21;98598.54;217188;1259;161139;-70
2024/04/24 16:08:36;;;;;;;7.00;4.80;;;;;;;10.70;53.23;98593.10;217245;1260;139790;-71
2024/04/24 16:13:37;;;;;;;8.60;7.10;;;;;;;10.67;52.91;98586.92;217311;1257;139648;-68
2024/04/24 16:18:39;;;;;;;11.40;7.70;;;;;;;10.57;52.74;98590.36;217286;1258;140629;-69
2024/04/24 16:23:40;;;;;;;8.10;6.20;;;;;;;10.49;52.88;98581.75;217194;1257;139636;-69
2024/04/24 16:28:42;;;;;;;9.80;8.00;;;;;;;10.42;53.06;98583.86;217305;1257;139031;-69
2024/04/24 16:33:43;;;;;;;8.60;6.80;;;;;;;10.33;53.03;98587.46;217276;1260;141525;-70
2024/04/24 16:38:45;;;;;;;8.00;6.60;;;;;;;10.26;53.22;98591.37;217215;1260;139734;-69
2024/04/24 16:43:46;;;;;;;11.60;8.60;;;;;;;10.21;53.26;98590.80;217345;1256;139318;-70
2024/04/24 16:48:50;;;;;;;9.30;7.40;;;;;;;10.19;54.63;98593.83;217956;1259;140915;-70
2024/04/24 16:53:52;;;;;;;11.20;7.80;;;;;;;10.14;55.14;98595.10;217199;1257;139730;-70
2024/04/24 16:58:53;;;;;;;10.10;7.90;;;;;;;10.06;55.68;98596.31;217434;1257;139662;-68
2024/04/24 17:03:54;;;;;;;9.20;7.00;;;;;;;9.94;56.33;98596.67;217629;1258;139409;-70
2024/04/24 17:08:56;;;;;;;10.60;8.30;;;;;;;9.83;56.94;98597.13;218944;1258;139121;-70
2024/04/24 17:13:58;;;;;;;11.40;7.90;;;;;;;9.73;57.22;98598.84;217634;1257;140630;-69
2024/04/24 17:19:00;;;;;;;9.10;6.70;;;;;;;9.65;58.31;98600.60;217438;1259;141409;-70
2024/04/24 17:24:02;;;;;;;11.40;8.00;;;;;;;9.58;58.56;98602.45;217458;1257;140416;-69
2024/04/24 17:29:03;;;;;;;10.10;6.60;;;;;;;9.50;59.28;98600.02;217359;1257;140035;-70
2024/04/24 17:34:06;;;;;;;7.20;6.50;;;;;;;9.42;59.89;98613.16;217462;1257;140206;-70
2024/04/24 17:39:09;;;;;;;7.10;6.40;;;;;;;9.33;60.49;98614.02;218541;1257;139989;-70
2024/04/24 17:44:10;;;;;;;8.50;6.00;;;;;;;9.23;60.83;98612.50;217493;1257;140159;-70
2024/04/24 17:49:17;;;;;;;9.50;6.20;;;;;;;9.14;61.28;98611.21;217274;1257;140001;-71
2024/04/24 17:54:18;;;;;;;10.20;6.00;;;;;;;9.02;61.70;98610.30;217294;1259;140346;-70
2024/04/24 17:59:20;;;;;;;14.00;5.90;;;;;;;8.94;62.33;98609.73;217089;1257;140412;-71
2024/04/24 18:04:21;;;;;;;8.60;6.00;;;;;;;8.85;62.63;98605.52;217650;1260;141828;-69
2024/04/24 18:09:23;;;;;;;11.40;6.70;;;;;;;8.74;63.00;98607.59;217336;1257;139870;-70
2024/04/24 18:14:25;;;;;;;7.20;6.20;;;;;;;8.65;63.06;98612.85;217576;1258;141060;-68
2024/04/24 18:19:27;;;;;;;7.80;6.40;;;;;;;8.54;63.23;98617.95;217217;1258;140552;-69
2024/04/24 18:24:29;;;;;;;11.20;7.60;;;;;;;8.45;63.88;98621.56;218222;1257;140546;-69
2024/04/24 18:29:30;;;;;;;11.30;9.70;;;;;;;8.38;64.09;98626.69;218030;1257;140625;-70
2024/04/24 18:34:32;;;;;;;9.60;7.50;;;;;;;8.31;64.34;98628.39;217306;1257;141407;-70
2024/04/24 18:39:34;;;;;;;9.00;8.10;;;;;;;8.23;64.53;98628.17;217378;1258;140544;-68
2024/04/24 18:44:35;;;;;;;13.60;10.20;;;;;;;8.15;64.73;98634.86;217428;1257;139922;-68
2024/04/24 18:49:37;;;;;;;13.60;10.10;;;;;;;8.09;65.39;98639.71;217484;1257;140525;-68
2024/04/24 18:54:39;;;;;;;16.70;11.80;;;;;;;8.04;65.42;98645.41;218732;1256;140773;-69
2024/04/24 18:59:41;;;;;;;15.30;11.00;;;;;;;7.97;65.87;98647.97;217731;1257;141893;-70
2024/04/24 19:04:42;;;;;;;13.50;10.00;;;;;;;7.93;66.06;98647.19;218522;1255;140634;-71
2024/04/24 19:09:44;;;;;;;12.30;9.90;;;;;;;7.87;66.57;98648.37;217308;1259;140428;-68
2024/04/24 19:14:45;;;;;;;12.20;9.80;;;;;;;7.82;66.64;98643.84;217969;1257;140784;-68
2024/04/24 19:19:47;;;;;;;16.40;11.00;;;;;;;7.77;67.10;98640.27;219372;1257;139628;-69
2024/04/24 19:24:49;;;;;;;17.00;10.80;;;;;;;7.72;67.46;98638.70;217788;1258;141156;-68
2024/04/24 19:29:50;;;;;;;16.00;10.90;;;;;;;7.68;67.52;98635.40;217219;1261;140082;-70
2024/04/24 19:34:51;;;;;;;16.30;12.10;;;;;;;7.64;67.99;98642.35;217231;1260;140661;-67
2024/04/24 19:39:53;;;;;;;15.90;12.60;;;;;;;7.58;68.29;98645.20;217209;1257;140225;-67
2024/04/24 19:44:55;;;;;;;21.90;15.00;;;;;;;7.55;68.38;98645.04;217352;1257;140163;-68
2024/04/24 19:49:57;;;;;;;19.40;13.60;;;;;;;7.54;68.17;98653.92;219272;1259;142417;-69
2024/04/24 19:54:58;;;;;;;22.40;15.90;;;;;;;7.50;68.34;98663.31;217373;1259;140277;-69
2024/04/24 19:59:59;;;;;;;28.40;19.90;;;;;;;7.47;68.16;98666.80;217262;1258;140890;-68
2024/04/24 20:05:02;;;;;;;26.10;17.10;;;;;;;7.47;68.06;98666.36;217333;1259;139897;-67
2024/04/24 20:10:05;;;;;;;25.10;15.70;;;;;;;7.49;67.75;98665.45;217302;1259;139569;-67
2024/04/24 20:15:07;;;;;;;28.80;17.90;;;;;;;7.49;67.39;98668.06;217255;1259;141730;-67
2024/04/24 20:20:10;;;;;;;29.30;20.00;;;;;;;7.50;67.91;98672.53;217476;1257;139940;-69
2024/04/24 20:25:12;;;;;;;32.10;20.10;;;;;;;7.50;67.39;98677.92;217244;1259;140952;-68
2024/04/24 20:30:14;;;;;;;25.50;16.80;;;;;;;7.50;67.64;98680.00;217175;1259;140305;-71
2024/04/24 20:35:17;;;;;;;32.50;19.00;;;;;;;7.50;67.45;98681.86;217342;1259;142536;-68
2024/04/24 20:40:18;;;;;;;28.40;18.40;;;;;;;7.50;67.33;98680.90;218477;1259;140927;-68
2024/04/24 20:45:20;;;;;;;20.30;14.70;;;;;;;7.48;67.22;98680.56;217437;1259;140716;-68
2024/04/24 20:50:22;;;;;;;19.90;14.60;;;;;;;7.42;66.97;98686.77;217222;1258;140080;-68
2024/04/24 20:55:24;;;;;;;20.00;15.80;;;;;;;7.36;67.06;98687.27;217545;1259;140364;-71
2024/04/24 21:00:26;;;;;;;18.00;12.80;;;;;;;7.33;67.67;98687.36;218795;1260;140905;-72
2024/04/24 21:05:27;;;;;;;20.00;14.00;;;;;;;7.30;67.87;98688.38;217259;1257;140073;-67
2024/04/24 21:10:29;;;;;;;18.40;13.60;;;;;;;7.25;67.50;98691.48;217982;1259;139905;-67
2024/04/24 21:15:34;;;;;;;21.20;13.10;;;;;;;7.23;68.06;98689.73;217431;1259;141054;-69
2024/04/24 21:20:36;;;;;;;19.20;13.70;;;;;;;7.20;68.68;98692.85;217933;1257;140922;-67
2024/04/24 21:25:37;;;;;;;18.80;12.70;;;;;;;7.16;68.61;98695.79;217578;1257;140289;-67
2024/04/24 21:30:39;;;;;;;18.40;13.60;;;;;;;7.08;68.66;98705.24;217267;1259;140624;-69
2024/04/24 21:35:40;;;;;;;24.40;14.90;;;;;;;7.02;69.61;98707.95;217394;1261;140518;-68
2024/04/24 21:40:42;;;;;;;29.80;17.20;;;;;;;6.96;69.84;98708.70;217226;1259;140044;-70
2024/04/24 21:45:44;;;;;;;16.20;12.10;;;;;;;6.92;70.47;98709.08;217311;1259;141161;-68
2024/04/24 21:50:50;;;;;;;21.90;16.50;;;;;;;6.80;70.53;98707.19;217317;1259;139617;-68
2024/04/24 21:55:56;;;;;;;23.90;17.10;;;;;;;6.74;70.88;98705.59;217424;1257;140547;-68
2024/04/24 22:00:58;;;;;;;24.20;16.50;;;;;;;6.71;71.38;98709.00;217327;1261;140522;-67
2024/04/24 22:06:01;;;;;;;26.20;16.80;;;;;;;6.67;71.85;98708.11;217347;1260;140326;-69
2024/04/24 22:11:03;;;;;;;20.90;14.40;;;;;;;6.61;72.15;98711.65;217617;1258;139792;-67
2024/04/24 22:16:05;;;;;;;27.70;17.40;;;;;;;6.54;72.88;98708.64;217535;1259;142263;-66
2024/04/24 22:21:08;;;;;;;23.60;16.90;;;;;;;6.52;72.95;98709.38;217158;1259;139746;-67
2024/04/24 22:26:13;;;;;;;25.20;16.90;;;;;;;6.50;73.24;98706.11;217174;1261;140342;-68
2024/04/24 22:31:15;;;;;;;21.40;14.30;;;;;;;6.45;73.74;98709.06;217149;1262;141050;-68
2024/04/24 22:36:16;;;;;;;19.70;14.20;;;;;;;6.37;73.34;98711.47;217157;1259;140189;-69
2024/04/24 22:41:17;;;;;;;20.80;15.10;;;;;;;6.31;73.99;98714.20;217278;1259;139987;-67
2024/04/24 22:46:19;;;;;;;21.70;15.60;;;;;;;6.28;74.27;98719.73;217264;1259;140268;-67
2024/04/24 22:51:21;;;;;;;25.60;17.30;;;;;;;6.23;74.36;98719.58;217291;1257;140900;-67
2024/04/24 22:56:22;;;;;;;23.20;16.60;;;;;;;6.20;74.61;98716.23;217252;1257;140120;-71
2024/04/24 23:01:25;;;;;;;24.50;16.50;;;;;;;6.18;74.85;98711.40;217424;1261;140307;-68
2024/04/24 23:06:26;;;;;;;26.10;16.50;;;;;;;6.16;74.88;98707.60;217250;1257;140806;-67